sensor_id;sensor_type;location;lat;lon;timestamp;P1;durP1;ratioP1;P2;durP2;ratioP2
22066;SDS011;72821;49.814;19.034;2023-12-29T00:03:42;25.05;;;12.82;;
22066;SDS011;72821;49.814;19.034;2023-12-29T00:08:44;21.20;;;10.73;;
22066;SDS011;72821;49.814;19.034;2023-12-29T00:13:47;22.23;;;11.88;;
22066;SDS011;72821;49.814;19.034;2023-12-29T00:18:49;26.08;;;11.93;;
22066;SDS011;72821;49.814;19.034;2023-12-29T00:23:51;20.52;;;10.07;;
22066;SDS011;72821;49.814;19.034;2023-12-29T00:28:54;17.88;;;9.75;;
22066;SDS011;72821;49.814;19.034;2023-12-29T00:33:56;22.27;;;9.73;;
22066;SDS011;72821;49.814;19.034;2023-12-29T00:38:58;17.67;;;8.25;;
22066;SDS011;72821;49.814;19.034;2023-12-29T00:44:00;10.57;;;4.85;;
22066;SDS011;72821;49.814;19.034;2023-12-29T00:49:02;8.25;;;3.95;;
22066;SDS011;72821;49.814;19.034;2023-12-29T00:54:05;9.30;;;3.85;;
22066;SDS011;72821;49.814;19.034;2023-12-29T00:59:09;6.50;;;2.75;;
22066;SDS011;72821;49.814;19.034;2023-12-29T01:04:11;7.35;;;2.75;;
22066;SDS011;72821;49.814;19.034;2023-12-29T01:09:13;5.95;;;2.40;;
22066;SDS011;72821;49.814;19.034;2023-12-29T01:14:15;5.47;;;2.25;;
22066;SDS011;72821;49.814;19.034;2023-12-29T01:19:17;5.95;;;2.38;;
22066;SDS011;72821;49.814;19.034;2023-12-29T01:24:19;7.95;;;2.83;;
22066;SDS011;72821;49.814;19.034;2023-12-29T01:29:33;7.15;;;2.50;;
22066;SDS011;72821;49.814;19.034;2023-12-29T01:34:37;9.10;;;2.85;;
22066;SDS011;72821;49.814;19.034;2023-12-29T01:39:40;9.45;;;3.05;;
22066;SDS011;72821;49.814;19.034;2023-12-29T01:44:42;6.18;;;2.25;;
22066;SDS011;72821;49.814;19.034;2023-12-29T01:49:45;6.53;;;2.20;;
22066;SDS011;72821;49.814;19.034;2023-12-29T01:54:50;6.18;;;2.05;;
22066;SDS011;72821;49.814;19.034;2023-12-29T01:59:54;8.05;;;2.78;;
22066;SDS011;72821;49.814;19.034;2023-12-29T02:04:56;5.40;;;1.90;;
22066;SDS011;72821;49.814;19.034;2023-12-29T02:09:59;6.68;;;3.13;;
22066;SDS011;72821;49.814;19.034;2023-12-29T02:15:03;9.10;;;3.80;;
22066;SDS011;72821;49.814;19.034;2023-12-29T02:20:07;8.50;;;3.13;;
22066;SDS011;72821;49.814;19.034;2023-12-29T02:25:10;8.07;;;2.92;;
22066;SDS011;72821;49.814;19.034;2023-12-29T02:30:18;10.32;;;3.33;;
22066;SDS011;72821;49.814;19.034;2023-12-29T02:35:32;7.85;;;3.03;;
22066;SDS011;72821;49.814;19.034;2023-12-29T02:40:39;6.85;;;2.40;;
22066;SDS011;72821;49.814;19.034;2023-12-29T02:45:41;8.85;;;2.67;;
22066;SDS011;72821;49.814;19.034;2023-12-29T02:50:44;11.77;;;3.67;;
22066;SDS011;72821;49.814;19.034;2023-12-29T02:55:46;6.55;;;2.70;;
22066;SDS011;72821;49.814;19.034;2023-12-29T03:00:48;6.18;;;2.63;;
22066;SDS011;72821;49.814;19.034;2023-12-29T03:05:50;9.68;;;3.20;;
22066;SDS011;72821;49.814;19.034;2023-12-29T03:10:53;5.05;;;2.17;;
22066;SDS011;72821;49.814;19.034;2023-12-29T03:15:55;6.28;;;2.47;;
22066;SDS011;72821;49.814;19.034;2023-12-29T03:20:57;5.78;;;2.33;;
22066;SDS011;72821;49.814;19.034;2023-12-29T03:25:59;18.45;;;4.35;;
22066;SDS011;72821;49.814;19.034;2023-12-29T03:31:01;7.90;;;2.78;;
22066;SDS011;72821;49.814;19.034;2023-12-29T03:36:04;14.15;;;3.95;;
22066;SDS011;72821;49.814;19.034;2023-12-29T03:41:06;10.52;;;3.10;;
22066;SDS011;72821;49.814;19.034;2023-12-29T03:46:16;7.47;;;2.60;;
22066;SDS011;72821;49.814;19.034;2023-12-29T03:51:19;6.78;;;2.22;;
22066;SDS011;72821;49.814;19.034;2023-12-29T03:56:21;7.13;;;2.55;;
22066;SDS011;72821;49.814;19.034;2023-12-29T04:01:25;7.70;;;2.50;;
22066;SDS011;72821;49.814;19.034;2023-12-29T04:06:30;9.07;;;3.08;;
22066;SDS011;72821;49.814;19.034;2023-12-29T04:11:32;7.30;;;2.40;;
22066;SDS011;72821;49.814;19.034;2023-12-29T04:16:36;10.10;;;3.08;;
22066;SDS011;72821;49.814;19.034;2023-12-29T04:21:39;11.65;;;2.83;;
22066;SDS011;72821;49.814;19.034;2023-12-29T04:26:41;5.72;;;2.08;;
22066;SDS011;72821;49.814;19.034;2023-12-29T04:31:43;6.00;;;2.03;;
22066;SDS011;72821;49.814;19.034;2023-12-29T04:36:45;5.00;;;1.77;;
22066;SDS011;72821;49.814;19.034;2023-12-29T04:41:47;2.22;;;1.30;;
22066;SDS011;72821;49.814;19.034;2023-12-29T04:46:49;3.28;;;1.80;;
22066;SDS011;72821;49.814;19.034;2023-12-29T04:51:51;7.72;;;2.85;;
22066;SDS011;72821;49.814;19.034;2023-12-29T04:56:54;4.40;;;2.20;;
22066;SDS011;72821;49.814;19.034;2023-12-29T05:01:56;7.55;;;2.88;;
22066;SDS011;72821;49.814;19.034;2023-12-29T05:06:58;5.40;;;2.53;;
22066;SDS011;72821;49.814;19.034;2023-12-29T05:12:00;6.07;;;2.50;;
22066;SDS011;72821;49.814;19.034;2023-12-29T05:17:02;16.60;;;4.75;;
22066;SDS011;72821;49.814;19.034;2023-12-29T05:22:04;6.85;;;2.33;;
22066;SDS011;72821;49.814;19.034;2023-12-29T05:27:06;13.25;;;3.92;;
22066;SDS011;72821;49.814;19.034;2023-12-29T05:32:08;7.68;;;2.45;;
22066;SDS011;72821;49.814;19.034;2023-12-29T05:37:10;8.73;;;2.30;;
22066;SDS011;72821;49.814;19.034;2023-12-29T05:42:12;8.43;;;2.45;;
22066;SDS011;72821;49.814;19.034;2023-12-29T05:47:16;7.72;;;2.67;;
22066;SDS011;72821;49.814;19.034;2023-12-29T05:52:19;5.68;;;2.35;;
22066;SDS011;72821;49.814;19.034;2023-12-29T05:57:22;6.28;;;2.08;;
22066;SDS011;72821;49.814;19.034;2023-12-29T06:02:24;6.40;;;2.78;;
22066;SDS011;72821;49.814;19.034;2023-12-29T06:07:27;8.02;;;2.92;;
22066;SDS011;72821;49.814;19.034;2023-12-29T06:12:29;10.55;;;3.00;;
22066;SDS011;72821;49.814;19.034;2023-12-29T06:17:31;5.63;;;2.25;;
22066;SDS011;72821;49.814;19.034;2023-12-29T06:22:33;5.82;;;1.85;;
22066;SDS011;72821;49.814;19.034;2023-12-29T06:27:36;9.77;;;2.08;;
22066;SDS011;72821;49.814;19.034;2023-12-29T06:32:42;13.05;;;2.60;;
22066;SDS011;72821;49.814;19.034;2023-12-29T06:37:44;5.93;;;1.95;;
22066;SDS011;72821;49.814;19.034;2023-12-29T06:42:46;4.65;;;1.63;;
22066;SDS011;72821;49.814;19.034;2023-12-29T06:47:48;5.18;;;2.13;;
22066;SDS011;72821;49.814;19.034;2023-12-29T06:52:50;6.95;;;2.05;;
22066;SDS011;72821;49.814;19.034;2023-12-29T06:57:52;7.30;;;2.05;;
22066;SDS011;72821;49.814;19.034;2023-12-29T07:02:54;7.90;;;2.08;;
22066;SDS011;72821;49.814;19.034;2023-12-29T07:07:56;10.48;;;2.22;;
22066;SDS011;72821;49.814;19.034;2023-12-29T07:12:59;5.80;;;2.05;;
22066;SDS011;72821;49.814;19.034;2023-12-29T07:18:01;7.30;;;2.13;;
22066;SDS011;72821;49.814;19.034;2023-12-29T07:23:04;5.75;;;1.63;;
22066;SDS011;72821;49.814;19.034;2023-12-29T07:28:06;5.05;;;1.48;;
22066;SDS011;72821;49.814;19.034;2023-12-29T07:33:08;6.50;;;1.95;;
22066;SDS011;72821;49.814;19.034;2023-12-29T07:38:11;9.68;;;2.47;;
22066;SDS011;72821;49.814;19.034;2023-12-29T07:43:13;8.40;;;2.05;;
22066;SDS011;72821;49.814;19.034;2023-12-29T07:48:15;9.75;;;2.35;;
22066;SDS011;72821;49.814;19.034;2023-12-29T07:53:17;16.05;;;2.67;;
22066;SDS011;72821;49.814;19.034;2023-12-29T07:58:19;8.07;;;1.88;;
22066;SDS011;72821;49.814;19.034;2023-12-29T08:03:22;7.18;;;1.35;;
22066;SDS011;72821;49.814;19.034;2023-12-29T08:08:24;8.07;;;2.22;;
22066;SDS011;72821;49.814;19.034;2023-12-29T08:13:26;7.82;;;2.72;;
22066;SDS011;72821;49.814;19.034;2023-12-29T08:18:28;7.03;;;2.22;;
22066;SDS011;72821;49.814;19.034;2023-12-29T08:23:30;4.32;;;1.40;;
22066;SDS011;72821;49.814;19.034;2023-12-29T08:28:32;6.60;;;1.98;;
22066;SDS011;72821;49.814;19.034;2023-12-29T08:33:34;8.90;;;2.45;;
22066;SDS011;72821;49.814;19.034;2023-12-29T08:38:36;6.10;;;1.75;;
22066;SDS011;72821;49.814;19.034;2023-12-29T08:43:39;6.05;;;1.92;;
22066;SDS011;72821;49.814;19.034;2023-12-29T08:48:41;10.02;;;2.53;;
22066;SDS011;72821;49.814;19.034;2023-12-29T08:53:43;6.00;;;1.77;;
22066;SDS011;72821;49.814;19.034;2023-12-29T08:58:49;3.70;;;1.48;;
22066;SDS011;72821;49.814;19.034;2023-12-29T09:03:51;3.97;;;1.48;;
22066;SDS011;72821;49.814;19.034;2023-12-29T09:08:54;4.22;;;1.60;;
22066;SDS011;72821;49.814;19.034;2023-12-29T09:13:56;4.18;;;1.38;;
22066;SDS011;72821;49.814;19.034;2023-12-29T09:18:58;5.68;;;1.70;;
22066;SDS011;72821;49.814;19.034;2023-12-29T09:24:01;8.07;;;2.80;;
22066;SDS011;72821;49.814;19.034;2023-12-29T09:29:03;5.28;;;1.92;;
22066;SDS011;72821;49.814;19.034;2023-12-29T09:34:05;5.88;;;2.10;;
22066;SDS011;72821;49.814;19.034;2023-12-29T09:39:07;10.20;;;3.15;;
22066;SDS011;72821;49.814;19.034;2023-12-29T09:44:12;11.15;;;3.22;;
22066;SDS011;72821;49.814;19.034;2023-12-29T09:49:15;8.60;;;2.60;;
22066;SDS011;72821;49.814;19.034;2023-12-29T09:54:19;6.82;;;2.00;;
22066;SDS011;72821;49.814;19.034;2023-12-29T09:59:22;9.05;;;2.25;;
22066;SDS011;72821;49.814;19.034;2023-12-29T10:04:26;10.95;;;2.65;;
22066;SDS011;72821;49.814;19.034;2023-12-29T10:09:28;10.52;;;2.35;;
22066;SDS011;72821;49.814;19.034;2023-12-29T10:14:48;9.95;;;2.55;;
22066;SDS011;72821;49.814;19.034;2023-12-29T10:20:05;10.40;;;2.55;;
22066;SDS011;72821;49.814;19.034;2023-12-29T10:25:16;4.78;;;1.90;;
22066;SDS011;72821;49.814;19.034;2023-12-29T10:30:19;9.57;;;2.63;;
22066;SDS011;72821;49.814;19.034;2023-12-29T10:35:31;9.50;;;2.60;;
22066;SDS011;72821;49.814;19.034;2023-12-29T10:40:37;3.88;;;2.15;;
22066;SDS011;72821;49.814;19.034;2023-12-29T10:45:39;3.63;;;1.88;;
22066;SDS011;72821;49.814;19.034;2023-12-29T10:50:42;3.58;;;1.90;;
22066;SDS011;72821;49.814;19.034;2023-12-29T10:55:47;3.95;;;1.95;;
22066;SDS011;72821;49.814;19.034;2023-12-29T11:00:49;4.18;;;2.10;;
22066;SDS011;72821;49.814;19.034;2023-12-29T11:06:01;3.88;;;2.40;;
22066;SDS011;72821;49.814;19.034;2023-12-29T11:11:03;5.50;;;2.67;;
22066;SDS011;72821;49.814;19.034;2023-12-29T11:16:07;2.92;;;1.88;;
22066;SDS011;72821;49.814;19.034;2023-12-29T11:21:11;6.30;;;2.55;;
22066;SDS011;72821;49.814;19.034;2023-12-29T11:26:13;4.18;;;2.03;;
22066;SDS011;72821;49.814;19.034;2023-12-29T11:31:16;4.70;;;2.40;;
22066;SDS011;72821;49.814;19.034;2023-12-29T11:36:20;7.75;;;2.92;;
22066;SDS011;72821;49.814;19.034;2023-12-29T11:41:39;9.63;;;3.17;;
22066;SDS011;72821;49.814;19.034;2023-12-29T11:46:48;5.80;;;2.53;;
22066;SDS011;72821;49.814;19.034;2023-12-29T11:51:50;13.32;;;3.45;;
22066;SDS011;72821;49.814;19.034;2023-12-29T11:56:53;6.65;;;2.80;;
22066;SDS011;72821;49.814;19.034;2023-12-29T12:01:56;6.88;;;2.85;;
22066;SDS011;72821;49.814;19.034;2023-12-29T12:07:00;7.53;;;2.22;;
22066;SDS011;72821;49.814;19.034;2023-12-29T12:12:03;6.65;;;2.10;;
22066;SDS011;72821;49.814;19.034;2023-12-29T12:17:05;5.13;;;1.90;;
22066;SDS011;72821;49.814;19.034;2023-12-29T12:22:09;3.20;;;1.50;;
22066;SDS011;72821;49.814;19.034;2023-12-29T12:27:12;2.53;;;1.40;;
22066;SDS011;72821;49.814;19.034;2023-12-29T12:32:15;2.00;;;1.20;;
22066;SDS011;72821;49.814;19.034;2023-12-29T12:37:18;2.30;;;1.40;;
22066;SDS011;72821;49.814;19.034;2023-12-29T12:42:22;3.95;;;1.80;;
22066;SDS011;72821;49.814;19.034;2023-12-29T12:47:51;3.40;;;1.48;;
22066;SDS011;72821;49.814;19.034;2023-12-29T12:52:51;3.45;;;1.80;;
22066;SDS011;72821;49.814;19.034;2023-12-29T12:57:54;2.85;;;1.60;;
22066;SDS011;72821;49.814;19.034;2023-12-29T13:02:59;3.00;;;1.70;;
22066;SDS011;72821;49.814;19.034;2023-12-29T13:08:02;3.80;;;1.67;;
22066;SDS011;72821;49.814;19.034;2023-12-29T13:13:05;3.55;;;1.80;;
22066;SDS011;72821;49.814;19.034;2023-12-29T13:18:07;5.00;;;2.20;;
22066;SDS011;72821;49.814;19.034;2023-12-29T13:23:10;3.20;;;1.95;;
22066;SDS011;72821;49.814;19.034;2023-12-29T13:28:12;3.10;;;1.60;;
22066;SDS011;72821;49.814;19.034;2023-12-29T13:33:24;5.18;;;3.33;;
22066;SDS011;72821;49.814;19.034;2023-12-29T13:38:43;5.28;;;2.10;;
22066;SDS011;72821;49.814;19.034;2023-12-29T13:43:55;4.18;;;2.30;;
22066;SDS011;72821;49.814;19.034;2023-12-29T13:48:58;4.47;;;1.77;;
22066;SDS011;72821;49.814;19.034;2023-12-29T13:54:01;4.22;;;1.83;;
22066;SDS011;72821;49.814;19.034;2023-12-29T13:59:03;4.38;;;1.73;;
22066;SDS011;72821;49.814;19.034;2023-12-29T14:04:07;4.15;;;1.70;;
22066;SDS011;72821;49.814;19.034;2023-12-29T14:09:15;3.40;;;1.45;;
22066;SDS011;72821;49.814;19.034;2023-12-29T14:14:21;3.28;;;1.70;;
22066;SDS011;72821;49.814;19.034;2023-12-29T14:19:33;3.78;;;2.20;;
22066;SDS011;72821;49.814;19.034;2023-12-29T14:24:37;2.72;;;1.30;;
22066;SDS011;72821;49.814;19.034;2023-12-29T14:29:42;3.38;;;1.90;;
22066;SDS011;72821;49.814;19.034;2023-12-29T14:34:44;4.50;;;2.08;;
22066;SDS011;72821;49.814;19.034;2023-12-29T14:39:52;4.40;;;2.42;;
22066;SDS011;72821;49.814;19.034;2023-12-29T14:44:54;2.75;;;1.45;;
22066;SDS011;72821;49.814;19.034;2023-12-29T14:49:56;3.05;;;1.70;;
22066;SDS011;72821;49.814;19.034;2023-12-29T14:54:58;5.13;;;1.50;;
22066;SDS011;72821;49.814;19.034;2023-12-29T15:00:01;7.35;;;4.30;;
22066;SDS011;72821;49.814;19.034;2023-12-29T15:05:05;3.42;;;1.85;;
22066;SDS011;72821;49.814;19.034;2023-12-29T15:10:08;5.07;;;1.90;;
22066;SDS011;72821;49.814;19.034;2023-12-29T15:15:10;3.40;;;1.30;;
22066;SDS011;72821;49.814;19.034;2023-12-29T15:20:12;2.92;;;1.40;;
22066;SDS011;72821;49.814;19.034;2023-12-29T15:25:14;4.22;;;1.80;;
22066;SDS011;72821;49.814;19.034;2023-12-29T15:30:17;2.38;;;1.20;;
22066;SDS011;72821;49.814;19.034;2023-12-29T15:35:20;3.58;;;1.50;;
22066;SDS011;72821;49.814;19.034;2023-12-29T15:40:22;4.63;;;2.30;;
22066;SDS011;72821;49.814;19.034;2023-12-29T15:45:24;3.97;;;1.92;;
22066;SDS011;72821;49.814;19.034;2023-12-29T15:50:27;4.00;;;1.63;;
22066;SDS011;72821;49.814;19.034;2023-12-29T15:55:29;3.08;;;1.60;;
22066;SDS011;72821;49.814;19.034;2023-12-29T16:00:32;3.75;;;1.83;;
22066;SDS011;72821;49.814;19.034;2023-12-29T16:05:36;4.60;;;2.08;;
22066;SDS011;72821;49.814;19.034;2023-12-29T16:10:38;27.10;;;15.43;;
22066;SDS011;72821;49.814;19.034;2023-12-29T16:15:41;6.30;;;3.97;;
22066;SDS011;72821;49.814;19.034;2023-12-29T16:20:44;4.60;;;3.20;;
22066;SDS011;72821;49.814;19.034;2023-12-29T16:25:46;4.25;;;2.60;;
22066;SDS011;72821;49.814;19.034;2023-12-29T16:30:49;3.10;;;2.03;;
22066;SDS011;72821;49.814;19.034;2023-12-29T16:35:51;4.88;;;2.67;;
22066;SDS011;72821;49.814;19.034;2023-12-29T16:40:53;7.75;;;3.92;;
22066;SDS011;72821;49.814;19.034;2023-12-29T16:45:55;10.50;;;6.03;;
22066;SDS011;72821;49.814;19.034;2023-12-29T16:50:59;11.77;;;5.53;;
22066;SDS011;72821;49.814;19.034;2023-12-29T16:56:02;12.70;;;5.97;;
22066;SDS011;72821;49.814;19.034;2023-12-29T17:01:04;14.10;;;7.43;;
22066;SDS011;72821;49.814;19.034;2023-12-29T17:06:06;19.63;;;10.10;;
22066;SDS011;72821;49.814;19.034;2023-12-29T17:11:08;13.25;;;6.88;;
22066;SDS011;72821;49.814;19.034;2023-12-29T17:16:10;31.50;;;15.65;;
22066;SDS011;72821;49.814;19.034;2023-12-29T17:21:16;12.25;;;5.15;;
22066;SDS011;72821;49.814;19.034;2023-12-29T17:26:18;7.72;;;3.70;;
22066;SDS011;72821;49.814;19.034;2023-12-29T17:31:21;11.20;;;6.18;;
22066;SDS011;72821;49.814;19.034;2023-12-29T17:36:23;7.85;;;4.35;;
22066;SDS011;72821;49.814;19.034;2023-12-29T17:41:25;8.45;;;3.65;;
22066;SDS011;72821;49.814;19.034;2023-12-29T17:46:28;8.23;;;4.20;;
22066;SDS011;72821;49.814;19.034;2023-12-29T17:51:31;7.93;;;3.75;;
22066;SDS011;72821;49.814;19.034;2023-12-29T17:56:33;7.03;;;3.92;;
22066;SDS011;72821;49.814;19.034;2023-12-29T18:01:35;7.75;;;4.07;;
22066;SDS011;72821;49.814;19.034;2023-12-29T18:06:37;7.30;;;3.70;;
22066;SDS011;72821;49.814;19.034;2023-12-29T18:11:48;5.00;;;2.65;;
22066;SDS011;72821;49.814;19.034;2023-12-29T18:16:52;7.03;;;4.07;;
22066;SDS011;72821;49.814;19.034;2023-12-29T18:21:54;8.07;;;4.25;;
22066;SDS011;72821;49.814;19.034;2023-12-29T18:26:56;4.95;;;2.50;;
22066;SDS011;72821;49.814;19.034;2023-12-29T18:31:58;5.10;;;2.95;;
22066;SDS011;72821;49.814;19.034;2023-12-29T18:37:21;4.93;;;2.38;;
22066;SDS011;72821;49.814;19.034;2023-12-29T18:42:23;3.92;;;2.40;;
22066;SDS011;72821;49.814;19.034;2023-12-29T18:47:25;3.00;;;1.70;;
22066;SDS011;72821;49.814;19.034;2023-12-29T18:52:27;5.10;;;2.30;;
22066;SDS011;72821;49.814;19.034;2023-12-29T18:57:29;4.45;;;1.75;;
22066;SDS011;72821;49.814;19.034;2023-12-29T19:02:31;3.45;;;1.60;;
22066;SDS011;72821;49.814;19.034;2023-12-29T19:07:33;5.10;;;2.00;;
22066;SDS011;72821;49.814;19.034;2023-12-29T19:12:36;5.45;;;2.55;;
22066;SDS011;72821;49.814;19.034;2023-12-29T19:17:39;3.72;;;1.80;;
22066;SDS011;72821;49.814;19.034;2023-12-29T19:22:41;5.47;;;3.05;;
22066;SDS011;72821;49.814;19.034;2023-12-29T19:27:45;4.93;;;2.50;;
22066;SDS011;72821;49.814;19.034;2023-12-29T19:32:47;18.45;;;10.93;;
22066;SDS011;72821;49.814;19.034;2023-12-29T19:37:50;4.85;;;3.13;;
22066;SDS011;72821;49.814;19.034;2023-12-29T19:42:52;5.22;;;3.22;;
22066;SDS011;72821;49.814;19.034;2023-12-29T19:47:54;7.55;;;3.50;;
22066;SDS011;72821;49.814;19.034;2023-12-29T19:52:56;5.47;;;3.00;;
22066;SDS011;72821;49.814;19.034;2023-12-29T19:58:01;6.78;;;3.33;;
22066;SDS011;72821;49.814;19.034;2023-12-29T20:03:04;4.25;;;2.30;;
22066;SDS011;72821;49.814;19.034;2023-12-29T20:08:07;5.15;;;2.92;;
22066;SDS011;72821;49.814;19.034;2023-12-29T20:13:10;6.07;;;2.80;;
22066;SDS011;72821;49.814;19.034;2023-12-29T20:18:12;7.18;;;3.63;;
22066;SDS011;72821;49.814;19.034;2023-12-29T20:23:15;8.02;;;4.53;;
22066;SDS011;72821;49.814;19.034;2023-12-29T20:28:17;8.93;;;6.25;;
22066;SDS011;72821;49.814;19.034;2023-12-29T20:33:20;4.75;;;2.67;;
22066;SDS011;72821;49.814;19.034;2023-12-29T20:38:22;4.78;;;3.05;;
22066;SDS011;72821;49.814;19.034;2023-12-29T20:43:24;4.20;;;2.30;;
22066;SDS011;72821;49.814;19.034;2023-12-29T20:48:26;6.75;;;4.10;;
22066;SDS011;72821;49.814;19.034;2023-12-29T20:53:29;4.60;;;2.42;;
22066;SDS011;72821;49.814;19.034;2023-12-29T20:58:31;3.50;;;1.88;;
22066;SDS011;72821;49.814;19.034;2023-12-29T21:03:33;3.80;;;2.10;;
22066;SDS011;72821;49.814;19.034;2023-12-29T21:08:36;3.88;;;1.63;;
22066;SDS011;72821;49.814;19.034;2023-12-29T21:13:38;2.85;;;1.48;;
22066;SDS011;72821;49.814;19.034;2023-12-29T21:18:41;6.63;;;4.32;;
22066;SDS011;72821;49.814;19.034;2023-12-29T21:23:45;5.25;;;2.85;;
22066;SDS011;72821;49.814;19.034;2023-12-29T21:28:47;12.70;;;8.60;;
22066;SDS011;72821;49.814;19.034;2023-12-29T21:33:49;11.80;;;5.15;;
22066;SDS011;72821;49.814;19.034;2023-12-29T21:38:51;6.13;;;3.45;;
22066;SDS011;72821;49.814;19.034;2023-12-29T21:43:54;6.25;;;2.90;;
22066;SDS011;72821;49.814;19.034;2023-12-29T21:48:57;6.28;;;2.53;;
22066;SDS011;72821;49.814;19.034;2023-12-29T21:53:59;7.35;;;3.30;;
22066;SDS011;72821;49.814;19.034;2023-12-29T21:59:01;4.85;;;1.92;;
22066;SDS011;72821;49.814;19.034;2023-12-29T22:04:03;3.85;;;2.25;;
22066;SDS011;72821;49.814;19.034;2023-12-29T22:09:07;4.32;;;2.40;;
22066;SDS011;72821;49.814;19.034;2023-12-29T22:14:11;4.47;;;2.13;;
22066;SDS011;72821;49.814;19.034;2023-12-29T22:19:16;4.18;;;2.30;;
22066;SDS011;72821;49.814;19.034;2023-12-29T22:24:20;4.90;;;2.70;;
22066;SDS011;72821;49.814;19.034;2023-12-29T22:29:23;5.43;;;2.58;;
22066;SDS011;72821;49.814;19.034;2023-12-29T22:34:25;4.20;;;2.17;;
22066;SDS011;72821;49.814;19.034;2023-12-29T22:39:28;4.47;;;2.13;;
22066;SDS011;72821;49.814;19.034;2023-12-29T22:44:30;5.97;;;2.65;;
22066;SDS011;72821;49.814;19.034;2023-12-29T22:49:32;4.47;;;2.28;;
22066;SDS011;72821;49.814;19.034;2023-12-29T22:54:34;3.58;;;2.03;;
22066;SDS011;72821;49.814;19.034;2023-12-29T22:59:36;5.75;;;2.80;;
22066;SDS011;72821;49.814;19.034;2023-12-29T23:04:38;3.20;;;1.73;;
22066;SDS011;72821;49.814;19.034;2023-12-29T23:09:41;3.00;;;1.33;;
22066;SDS011;72821;49.814;19.034;2023-12-29T23:14:42;2.47;;;1.30;;
22066;SDS011;72821;49.814;19.034;2023-12-29T23:19:44;2.13;;;1.35;;
22066;SDS011;72821;49.814;19.034;2023-12-29T23:24:47;2.33;;;1.20;;
22066;SDS011;72821;49.814;19.034;2023-12-29T23:29:49;2.72;;;1.40;;
22066;SDS011;72821;49.814;19.034;2023-12-29T23:34:52;2.65;;;1.17;;
22066;SDS011;72821;49.814;19.034;2023-12-29T23:39:54;3.25;;;1.30;;
22066;SDS011;72821;49.814;19.034;2023-12-29T23:44:56;1.88;;;0.90;;
22066;SDS011;72821;49.814;19.034;2023-12-29T23:49:58;2.03;;;1.00;;
22066;SDS011;72821;49.814;19.034;2023-12-29T23:55:00;1.98;;;0.95;;
